Delray Beach, FL (33444)

11:53 PM EDT on August 31, 2016 (GMT -0400)
Delray Beach | | Change Station

Elev 30 ft 26.47 °N, 80.09 °W | Updated 4 seconds ago

Light Thunderstorms and Rain
Light Thunderstorm Rain Mist
74.8 °F
Feels Like 74 °F
N
0.0
Wind Variable Wind from SSE
Gusts 4.7 mph

Today
High -- | Low -- °F
--% Chance of Precip.
Yesterday
High -- | Low -- °F
Precip. -- in
Pressure 30.00 in
Visibility 3.0 miles
Clouds Few 1800 ft
Mostly Cloudy 3700 ft
Overcast 4300 ft
Heat Index 74 °F
Dew Point 70 °F
Humidity 86%
Rainfall 0.27 in
Snow Depth Not available.
6:59 AM 7:40 PM
Waning Crescent, 0% visible
SPECI KPMP 010328Z AUTO 27009KT 3SM -TSRA BR FEW018 BKN037 OVC043 23/21 A3000 RMK AO2 PK WND 24029/0308 RAB11 TSB25 P0001 T02330211
Pressure 30.00 in
Visibility 3.0 miles
Clouds Few 1800 ft
Mostly Cloudy 3700 ft
Overcast 4300 ft
Heat Index 74 °F
Dew Point 70 °F
Humidity 86%
Rainfall 0.27 in
Snow Depth Not available.
6:59 AM 7:40 PM
Waning Crescent, 0% visible
SPECI KPMP 010328Z AUTO 27009KT 3SM -TSRA BR FEW018 BKN037 OVC043 23/21 A3000 RMK AO2 PK WND 24029/0308 RAB11 TSB25 P0001 T02330211

10-Day Weather Forecast

Almanac

Astronomy

Aug. 31, 2016 Rise Set
Actual Time
Civil Twilight
Nautical Twilight
Astronomical Twilight
Moon
Length of Visible Light
Length of Day
Tomorrow will be .
, % of the Moon is Illuminated

Today's Extremes

State Highs State Lows

Community

WunderPhotos

Upload Photos

1,936,291 photos uploaded!

WunderBlog® & News

Nearby

Air Quality

  Air Quality AQ Index Pollutant
Not available.

Snow Depth

Station Depth Elevation

Earthquake Activity

City Distance Mag. Time & Date
Minimum magnitude displayed is 2.5.

Coastal Water Temperatures

Place Temperature

Stations

Nearby Weather Stations

Station Location Temp. Windchill Dew Point Humidity Wind Precip. Elev Updated Type
                   

Watches & Warnings

There are currently no watches in effect.